KHOT

Memorial Field Airport

Airport
ICAO code
KHOT
Summary
ICAO Region
NAM
ICAO Territory
Location

Hot Springs, Arkansas,

Elevation
540 ft
Coordinates
34° 28' 44" N , 93° 5' 46" W
KCC
Airport WX
Cumulonimbus
Metar
Observation
KHOT 070753Z AUTO 00000KT 10SM CLR 16/12 A3017 RMK AO2 SLP212 T01560122
Station
Hot Springs, Memorial Field Airport
Date/Time
2022-10-07 07:53:00
Wind direction
Wind speed
00 kts
Lowest cloud amount
n/a
Temperature
15.6°C
Dew point
12.2°C
Humidity
80%
Weather condition
n/a

Description

Airport serving Hot Springs, Arkansas, located 3 nm southwest of the city's business district.

Climatology

Humid “subtropical” climate (Köppen climate classification Cfa) - characterized by hot, humid summers and cool winters. Significant amounts of precipitation occur in all seasons in most areas. Winter rainfall (and sometimes snowfall) is associated with large storms that the westerlies steer from west to east. Most summer rainfall occurs during thunderstorms and occasional tropical storms (hurricanes).

Airport map

Aerial View

SKYbrary Partners:

Safety knowledge contributed by: